Time;durP1;ratioP1;P1;durP2;ratioP2;P2;SDS_P1;SDS_P2;PMS_P1;PMS_P2;Temp;Humidity;BMP_temperature;BMP_pressure;BME280_temperature;BME280_humidity;BME280_pressure;Samples;Min_cycle;Max_cycle;Signal;HPM_P1;HPM_P2
2023/03/21 00:01:06;;;;;;;29.90;22.83;;;8.50;95.30;;;;;;5032912;28;20360;-50
2023/03/21 00:03:35;;;;;;;29.33;21.95;;;8.50;95.40;;;;;;5032967;28;20040;-50
2023/03/21 00:06:10;;;;;;;32.75;23.75;;;8.50;95.40;;;;;;5033435;28;20034;-48
2023/03/21 00:08:46;;;;;;;33.42;23.92;;;8.50;95.40;;;;;;5032962;28;20060;-51
2023/03/21 00:11:14;;;;;;;31.77;23.30;;;8.50;95.40;;;;;;5032750;28;20422;-50
2023/03/21 00:13:42;;;;;;;33.92;23.40;;;8.50;95.40;;;;;;5031970;28;20033;-48
2023/03/21 00:16:16;;;;;;;31.70;22.67;;;8.50;95.40;;;;;;5032951;28;20112;-48
2023/03/21 00:18:51;;;;;;;31.75;22.92;;;8.50;95.40;;;;;;5031798;28;20141;-49
2023/03/21 00:21:19;;;;;;;35.05;24.90;;;8.50;95.40;;;;;;5032679;28;20029;-48
2023/03/21 00:23:46;;;;;;;31.25;22.75;;;8.50;95.40;;;;;;5031837;28;20390;-47
2023/03/21 00:26:13;;;;;;;32.35;22.08;;;8.50;95.40;;;;;;5032819;28;20034;-48
2023/03/21 00:28:42;;;;;;;34.50;23.52;;;8.50;95.40;;;;;;5031478;28;20112;-48
2023/03/21 00:31:09;;;;;;;35.10;23.38;;;8.50;95.40;;;;;;5031527;28;20052;-49
2023/03/21 00:33:38;;;;;;;31.45;21.27;;;8.50;95.40;;;;;;5032612;28;20068;-47
2023/03/21 00:36:15;;;;;;;33.20;23.60;;;8.50;95.40;;;;;;5032783;28;20370;-47
2023/03/21 00:38:42;;;;;;;30.92;22.17;;;8.50;95.50;;;;;;5032281;28;20068;-47
2023/03/21 00:41:13;;;;;;;33.97;24.17;;;8.50;95.50;;;;;;5031604;28;20018;-47
2023/03/21 00:43:41;;;;;;;32.05;23.73;;;8.50;95.50;;;;;;5031967;28;20107;-48
2023/03/21 00:46:08;;;;;;;35.20;24.35;;;8.50;95.50;;;;;;5032888;28;20021;-49
2023/03/21 00:48:36;;;;;;;32.00;22.65;;;8.50;95.50;;;;;;5040169;28;20507;-49
2023/03/21 00:51:20;;;;;;;35.72;23.70;;;8.50;95.50;;;;;;5052292;28;20033;-47
2023/03/21 00:53:48;;;;;;;33.05;22.83;;;8.50;95.50;;;;;;5052096;28;20037;-49
2023/03/21 00:56:14;;;;;;;33.67;24.40;;;8.50;95.50;;;;;;5039253;28;20339;-49
2023/03/21 00:58:41;;;;;;;36.72;25.63;;;8.60;95.50;;;;;;5036365;28;20029;-47
2023/03/21 01:01:09;;;;;;;36.25;25.20;;;8.60;95.50;;;;;;5036318;28;20056;-47
2023/03/21 01:03:41;;;;;;;36.97;25.75;;;8.50;95.50;;;;;;5036298;28;20037;-47
2023/03/21 01:06:12;;;;;;;34.83;24.52;;;8.50;95.50;;;;;;5036204;28;20057;-47
2023/03/21 01:08:42;;;;;;;35.90;24.02;;;8.50;95.50;;;;;;5035280;28;20052;-48
2023/03/21 01:11:11;;;;;;;35.45;24.13;;;8.50;95.50;;;;;;5034547;28;20505;-49
2023/03/21 01:13:39;;;;;;;39.13;25.33;;;8.60;95.50;;;;;;5034796;28;20034;-48
2023/03/21 01:16:08;;;;;;;35.03;23.65;;;8.60;95.50;;;;;;5035373;28;20064;-48
2023/03/21 01:18:37;;;;;;;35.58;25.42;;;8.60;95.50;;;;;;5035033;28;20077;-48
2023/03/21 01:21:08;;;;;;;37.50;25.30;;;8.60;95.50;;;;;;5035105;28;20418;-51
2023/03/21 01:23:35;;;;;;;38.10;25.83;;;8.60;95.50;;;;;;5034947;28;20029;-47
2023/03/21 01:26:04;;;;;;;36.33;25.13;;;8.60;95.50;;;;;;5036188;28;20021;-48
2023/03/21 01:28:30;;;;;;;34.53;24.70;;;8.50;95.50;;;;;;5035249;28;20026;-50
2023/03/21 01:30:56;;;;;;;35.00;24.85;;;8.60;95.60;;;;;;5034814;28;20095;-48
2023/03/21 01:33:23;;;;;;;36.08;25.63;;;8.50;95.60;;;;;;5047179;28;20100;-48
2023/03/21 01:35:51;;;;;;;34.33;23.60;;;8.60;95.60;;;;;;5054961;28;20374;-51
2023/03/21 01:38:19;;;;;;;35.97;24.88;;;8.60;95.60;;;;;;5053582;28;20533;-47
2023/03/21 01:40:47;;;;;;;33.42;23.67;;;8.60;95.60;;;;;;5055376;28;20107;-47
2023/03/21 01:43:23;;;;;;;36.53;25.50;;;8.60;95.60;;;;;;5054660;28;20542;-49
2023/03/21 01:46:23;;;;;;;32.42;24.33;;;8.50;95.60;;;;;;5035724;28;20036;-49
2023/03/21 01:48:55;;;;;;;35.67;24.92;;;8.60;95.60;;;;;;5048430;28;20079;-47
2023/03/21 01:51:32;;;;;;;36.28;25.90;;;8.60;95.60;;;;;;5049789;28;20030;-48
2023/03/21 01:54:08;;;;;;;40.92;26.23;;;8.60;95.60;;;;;;5035735;28;20032;-47
2023/03/21 01:56:37;;;;;;;40.38;27.70;;;8.60;95.60;;;;;;5034592;28;20080;-48
2023/03/21 01:59:08;;;;;;;36.17;25.38;;;8.60;95.60;;;;;;5035392;28;20029;-48
2023/03/21 02:01:37;;;;;;;37.67;25.73;;;8.60;95.60;;;;;;5018285;28;20037;-47
2023/03/21 02:04:07;;;;;;;36.60;26.00;;;8.60;95.60;;;;;;5035449;28;20029;-48
2023/03/21 02:07:11;;;;;;;39.83;26.30;;;8.60;95.60;;;;;;5049892;28;20584;-47
2023/03/21 02:09:41;;;;;;;37.38;24.73;;;8.60;95.60;;;;;;5003269;28;20132;-51
2023/03/21 02:12:09;;;;;;;36.20;24.63;;;8.60;95.60;;;;;;5034051;28;20033;-48
2023/03/21 02:14:37;;;;;;;34.55;25.30;;;8.60;95.60;;;;;;5034272;28;20033;-47
2023/03/21 02:17:26;;;;;;;35.92;23.80;;;8.60;95.60;;;;;;5033682;28;20049;-48
2023/03/21 02:20:51;;;;;;;36.38;24.83;;;8.60;95.60;;;;;;5034899;28;20033;-46
2023/03/21 02:23:31;;;;;;;35.22;24.13;;;8.60;95.60;;;;;;4999435;28;20037;-46
2023/03/21 02:26:23;;;;;;;35.60;23.95;;;8.60;95.60;;;;;;5013238;28;20030;-47
2023/03/21 02:29:06;;;;;;;35.20;23.48;;;8.60;95.60;;;;;;5029792;28;20327;-47
2023/03/21 02:32:05;;;;;;;35.63;23.80;;;8.60;95.60;;;;;;5033810;28;20025;-51
2023/03/21 02:34:54;;;;;;;36.97;25.13;;;8.60;95.60;;;;;;5048204;28;20737;-49
2023/03/21 02:37:50;;;;;;;38.58;26.08;;;8.60;95.70;;;;;;5033811;28;20034;-48
2023/03/21 02:40:38;;;;;;;37.17;24.20;;;8.60;95.60;;;;;;5034409;28;20029;-50
2023/03/21 02:43:22;;;;;;;34.78;24.67;;;8.70;95.70;;;;;;5045999;28;20485;-47
2023/03/21 02:46:06;;;;;;;36.78;24.08;;;8.70;95.70;;;;;;5054545;28;20036;-46
2023/03/21 02:49:00;;;;;;;35.33;23.77;;;8.60;95.70;;;;;;5051073;28;20430;-50
2023/03/21 02:51:29;;;;;;;38.55;25.25;;;8.70;95.70;;;;;;5027242;28;20129;-50
2023/03/21 02:54:13;;;;;;;39.05;26.40;;;8.60;95.70;;;;;;5033245;28;20083;-47
2023/03/21 02:56:50;;;;;;;41.22;26.13;;;8.70;95.70;;;;;;5048179;28;20033;-48
2023/03/21 02:59:27;;;;;;;44.22;27.60;;;8.60;95.70;;;;;;5034068;28;20030;-48
2023/03/21 03:01:55;;;;;;;39.95;26.67;;;8.60;95.70;;;;;;5047625;28;20036;-47
2023/03/21 03:04:27;;;;;;;40.22;26.45;;;8.70;95.70;;;;;;5052681;28;20021;-49
2023/03/21 03:07:15;;;;;;;37.38;24.55;;;8.70;95.70;;;;;;5051474;28;20037;-50
2023/03/21 03:10:17;;;;;;;43.08;27.00;;;8.70;95.70;;;;;;5053755;28;20025;-49
2023/03/21 03:12:52;;;;;;;36.92;24.00;;;8.70;95.70;;;;;;5033990;28;20443;-49
2023/03/21 03:15:28;;;;;;;38.90;26.13;;;8.70;95.70;;;;;;5033701;28;20065;-51
2023/03/21 03:18:21;;;;;;;39.63;25.83;;;8.70;95.80;;;;;;5032281;28;20064;-55
2023/03/21 03:20:58;;;;;;;37.10;24.25;;;8.70;95.70;;;;;;5033181;28;20057;-57
2023/03/21 03:23:46;;;;;;;42.03;26.13;;;8.70;95.70;;;;;;5033796;28;20038;-56
2023/03/21 03:26:37;;;;;;;40.53;25.58;;;8.70;95.70;;;;;;5033703;28;20095;-58
2023/03/21 03:29:20;;;;;;;39.00;24.67;;;8.70;95.80;;;;;;5032982;28;20064;-57
2023/03/21 03:31:58;;;;;;;41.67;26.95;;;8.70;95.70;;;;;;5032155;28;20029;-54
2023/03/21 03:34:33;;;;;;;35.17;24.08;;;8.80;95.80;;;;;;5032569;28;20037;-56
2023/03/21 03:37:04;;;;;;;39.03;24.90;;;8.80;95.70;;;;;;5016897;28;20405;-57
2023/03/21 03:39:36;;;;;;;34.53;23.17;;;8.80;95.80;;;;;;5043197;28;20037;-51
2023/03/21 03:42:37;;;;;;;37.47;24.55;;;8.80;95.80;;;;;;5052643;28;20040;-51
2023/03/21 03:45:05;;;;;;;38.55;23.58;;;8.80;95.80;;;;;;5011134;28;20649;-49
2023/03/21 03:47:56;;;;;;;39.15;26.13;;;8.80;95.80;;;;;;5033118;28;20087;-49
2023/03/21 03:50:46;;;;;;;39.60;24.90;;;8.80;95.80;;;;;;5033324;28;20029;-51
2023/03/21 03:53:36;;;;;;;40.42;24.45;;;8.80;95.80;;;;;;5033168;28;20718;-49
2023/03/21 03:56:07;;;;;;;36.05;25.02;;;8.80;95.80;;;;;;5039879;28;20094;-48
2023/03/21 03:58:38;;;;;;;39.38;24.02;;;8.80;95.80;;;;;;5052329;28;20350;-49
2023/03/21 04:01:07;;;;;;;38.88;26.33;;;8.80;95.80;;;;;;5052022;28;20123;-50
2023/03/21 04:03:40;;;;;;;38.33;25.67;;;8.80;95.80;;;;;;5048936;28;20032;-49
2023/03/21 04:06:07;;;;;;;38.50;23.85;;;8.80;95.80;;;;;;5032037;28;20040;-49
2023/03/21 04:08:36;;;;;;;39.85;24.05;;;8.90;95.80;;;;;;5032855;28;20025;-49
2023/03/21 04:11:05;;;;;;;34.90;22.92;;;8.90;95.80;;;;;;5033098;28;20037;-51
2023/03/21 04:13:37;;;;;;;39.42;24.58;;;8.90;95.80;;;;;;5033292;28;20061;-50
2023/03/21 04:16:04;;;;;;;41.42;25.95;;;8.80;95.80;;;;;;5033125;28;20040;-49
2023/03/21 04:18:31;;;;;;;39.00;24.55;;;8.90;95.80;;;;;;5032716;28;20099;-49
2023/03/21 04:20:58;;;;;;;39.25;26.15;;;8.90;95.80;;;;;;5048484;28;20405;-50
2023/03/21 04:23:25;;;;;;;47.85;26.85;;;8.90;95.90;;;;;;5048678;28;20025;-52
2023/03/21 04:25:51;;;;;;;39.38;24.20;;;8.90;95.80;;;;;;5033015;28;20017;-51
2023/03/21 04:28:20;;;;;;;40.42;25.38;;;8.90;95.80;;;;;;5051931;28;20021;-51
2023/03/21 04:30:48;;;;;;;43.63;26.10;;;8.90;95.80;;;;;;5055245;28;20056;-53
2023/03/21 04:33:17;;;;;;;39.67;23.95;;;8.90;95.90;;;;;;5055973;28;20502;-50
2023/03/21 04:35:44;;;;;;;39.75;25.00;;;8.90;95.90;;;;;;5049961;28;20099;-51
2023/03/21 04:38:12;;;;;;;43.85;25.48;;;8.90;95.90;;;;;;5036797;28;20033;-51
2023/03/21 04:40:39;;;;;;;41.38;26.25;;;8.90;95.90;;;;;;5036293;28;20036;-49
2023/03/21 04:43:05;;;;;;;41.85;25.40;;;8.90;95.90;;;;;;5036921;28;20101;-49
2023/03/21 04:45:32;;;;;;;45.20;25.38;;;8.90;95.90;;;;;;5036820;28;20117;-49
2023/03/21 04:47:58;;;;;;;38.33;23.30;;;8.90;95.90;;;;;;5036795;28;20346;-48
2023/03/21 04:50:24;;;;;;;43.53;25.23;;;8.90;95.90;;;;;;5049883;28;20052;-49
2023/03/21 04:52:53;;;;;;;45.78;26.42;;;8.90;95.90;;;;;;5056464;28;20044;-50
2023/03/21 04:55:21;;;;;;;48.67;27.20;;;8.90;95.90;;;;;;5055737;28;20053;-50
2023/03/21 04:57:48;;;;;;;49.53;26.45;;;8.90;95.90;;;;;;5033856;28;20076;-50
2023/03/21 05:00:15;;;;;;;41.42;25.15;;;8.90;95.90;;;;;;5036299;28;20480;-50
2023/03/21 05:02:43;;;;;;;47.25;26.15;;;8.90;96.00;;;;;;5056091;28;20037;-48
2023/03/21 05:05:12;;;;;;;48.35;26.48;;;8.90;95.90;;;;;;5055598;28;20024;-47
2023/03/21 05:07:40;;;;;;;50.78;26.58;;;9.00;95.90;;;;;;5046988;28;20034;-47
2023/03/21 05:10:10;;;;;;;53.70;27.50;;;8.90;96.00;;;;;;5035189;28;20052;-48
2023/03/21 05:12:36;;;;;;;49.25;25.70;;;8.90;95.90;;;;;;5034934;28;20482;-47
2023/03/21 05:15:12;;;;;;;50.80;25.20;;;9.00;96.00;;;;;;5035850;28;20120;-47
2023/03/21 05:17:41;;;;;;;52.17;26.60;;;9.00;96.00;;;;;;5035809;28;20451;-48
2023/03/21 05:20:10;;;;;;;53.15;26.33;;;9.00;96.00;;;;;;5040593;28;20045;-48
2023/03/21 05:22:39;;;;;;;52.25;28.13;;;9.00;96.00;;;;;;5036337;28;20041;-48
2023/03/21 05:25:11;;;;;;;57.08;27.38;;;9.00;96.00;;;;;;5036096;28;20034;-50
2023/03/21 05:27:44;;;;;;;53.28;27.92;;;9.00;96.00;;;;;;5048930;28;20112;-51
2023/03/21 05:30:17;;;;;;;49.78;27.70;;;9.00;96.00;;;;;;5052607;28;20592;-49
2023/03/21 05:32:45;;;;;;;53.05;27.77;;;9.00;96.00;;;;;;5035910;28;20025;-48
2023/03/21 05:35:12;;;;;;;51.15;28.17;;;9.00;96.00;;;;;;5051317;28;20033;-48
2023/03/21 05:37:38;;;;;;;45.90;24.40;;;9.10;96.00;;;;;;5035711;28;20505;-52
2023/03/21 05:40:09;;;;;;;48.22;26.92;;;9.10;96.10;;;;;;5035626;28;20029;-50
2023/03/21 05:42:34;;;;;;;52.97;27.42;;;9.10;96.00;;;;;;5033629;28;20118;-48
2023/03/21 05:45:02;;;;;;;49.70;27.40;;;9.10;96.00;;;;;;5035422;28;20077;-48
2023/03/21 05:47:29;;;;;;;51.35;26.52;;;9.00;96.00;;;;;;5035204;28;20025;-47
2023/03/21 05:49:57;;;;;;;50.67;27.25;;;9.10;96.10;;;;;;5035078;28;20033;-48
2023/03/21 05:52:24;;;;;;;48.60;27.15;;;9.10;96.00;;;;;;5035170;28;20169;-47
2023/03/21 05:54:52;;;;;;;52.80;29.30;;;9.10;96.00;;;;;;5034703;28;20030;-51
2023/03/21 05:57:19;;;;;;;49.55;28.83;;;9.10;96.10;;;;;;5052022;28;20037;-46
2023/03/21 05:59:45;;;;;;;51.88;28.63;;;9.10;96.10;;;;;;5053966;28;20506;-48
2023/03/21 06:02:13;;;;;;;56.40;27.92;;;9.10;96.00;;;;;;5035376;28;20156;-47
2023/03/21 06:04:39;;;;;;;47.22;28.08;;;9.10;96.10;;;;;;5035399;28;20033;-48
2023/03/21 06:07:09;;;;;;;49.50;29.95;;;9.20;96.10;;;;;;5035405;28;20336;-46
2023/03/21 06:09:36;;;;;;;;;;;9.20;96.10;;;;;;5035759;28;20362;-47
2023/03/21 06:12:03;;;;;;;41.25;25.77;;;9.20;96.00;;;;;;5035067;28;19992;-49
2023/03/21 06:14:32;;;;;;;42.75;25.55;;;9.20;96.10;;;;;;5035372;28;20127;-47
2023/03/21 06:16:59;;;;;;;41.50;27.77;;;9.20;96.10;;;;;;5034665;28;20054;-47
2023/03/21 06:19:26;;;;;;;38.53;24.13;;;9.20;96.10;;;;;;5035048;28;20037;-52
2023/03/21 06:21:52;;;;;;;40.05;24.60;;;9.30;96.10;;;;;;5049624;28;20035;-47
2023/03/21 06:24:20;;;;;;;39.22;24.05;;;9.30;96.10;;;;;;5046961;28;20624;-47
2023/03/21 06:26:47;;;;;;;40.53;25.63;;;9.30;96.10;;;;;;5050641;28;20104;-48
2023/03/21 06:29:14;;;;;;;43.72;25.42;;;9.30;96.10;;;;;;5035139;28;20029;-47
2023/03/21 06:31:41;;;;;;;35.95;24.83;;;9.40;96.10;;;;;;5035016;28;20049;-49
2023/03/21 06:34:09;;;;;;;38.33;23.75;;;9.40;96.10;;;;;;5033771;28;20075;-48
2023/03/21 06:36:37;;;;;;;33.60;21.73;;;9.40;96.10;;;;;;5037553;28;20417;-45
2023/03/21 06:39:05;;;;;;;38.25;23.67;;;9.40;96.00;;;;;;5037000;28;20031;-48
2023/03/21 06:41:35;;;;;;;40.15;23.98;;;9.40;96.00;;;;;;5036978;28;20033;-47
2023/03/21 06:44:02;;;;;;;39.75;24.13;;;9.40;96.00;;;;;;5054677;28;20458;-47
2023/03/21 06:46:31;;;;;;;39.72;24.23;;;9.40;96.10;;;;;;5044689;28;20037;-49
2023/03/21 06:49:02;;;;;;;39.53;25.23;;;9.40;96.10;;;;;;5049978;28;20032;-47
2023/03/21 06:51:30;;;;;;;36.35;24.38;;;9.40;96.00;;;;;;5050019;28;20509;-48
2023/03/21 06:53:57;;;;;;;40.72;23.27;;;9.40;96.10;;;;;;5034133;28;20029;-50
2023/03/21 06:56:23;;;;;;;37.65;23.88;;;9.50;96.00;;;;;;5033154;28;20018;-50
2023/03/21 06:58:51;;;;;;;40.83;24.80;;;9.50;96.00;;;;;;5034492;28;20021;-49
2023/03/21 07:01:16;;;;;;;37.70;23.58;;;9.50;96.00;;;;;;5033877;28;20029;-46
2023/03/21 07:03:44;;;;;;;38.40;21.95;;;9.50;96.00;;;;;;5034043;28;20339;-47
2023/03/21 07:06:12;;;;;;;36.22;23.70;;;9.60;96.00;;;;;;5033393;28;20471;-49
2023/03/21 07:08:42;;;;;;;36.13;21.90;;;9.60;96.00;;;;;;5032817;28;20041;-50
2023/03/21 07:11:11;;;;;;;38.25;23.55;;;9.70;96.00;;;;;;5034241;28;20025;-49
2023/03/21 07:13:40;;;;;;;36.40;21.50;;;9.70;96.00;;;;;;5032918;28;20029;-48
2023/03/21 07:16:07;;;;;;;;;;;9.80;96.00;;;;;;5034433;28;20462;-51
2023/03/21 07:18:34;;;;;;;33.35;20.92;;;9.80;96.00;;;;;;5033640;28;19921;-46
2023/03/21 07:21:02;;;;;;;31.08;20.20;;;9.80;95.90;;;;;;5033523;28;20501;-49
2023/03/21 07:23:33;;;;;;;31.13;19.75;;;9.90;95.90;;;;;;5049440;28;20041;-46
2023/03/21 07:26:01;;;;;;;31.25;19.40;;;9.90;95.90;;;;;;5034160;28;20040;-50
2023/03/21 07:28:30;;;;;;;30.33;19.60;;;9.90;95.90;;;;;;5033879;28;20029;-46
2023/03/21 07:30:58;;;;;;;28.80;18.40;;;9.90;95.90;;;;;;5033830;28;20824;-47
2023/03/21 07:33:29;;;;;;;29.60;20.08;;;9.90;95.90;;;;;;5033471;28;20132;-49
2023/03/21 07:35:56;;;;;;;28.40;19.23;;;9.90;95.80;;;;;;5033943;28;20438;-45
2023/03/21 07:38:24;;;;;;;25.25;16.95;;;9.90;95.80;;;;;;5033734;28;20359;-45
2023/03/21 07:40:52;;;;;;;25.92;16.65;;;10.00;95.70;;;;;;5032488;28;20041;-44
2023/03/21 07:43:18;;;;;;;28.52;19.13;;;10.00;95.70;;;;;;5032106;28;20471;-45
2023/03/21 07:45:45;;;;;;;27.73;18.60;;;10.00;95.60;;;;;;5032831;28;20037;-46
2023/03/21 07:48:12;;;;;;;24.70;18.42;;;10.00;95.50;;;;;;5032410;28;20072;-45
2023/03/21 07:50:42;;;;;;;26.38;19.02;;;9.90;95.50;;;;;;5032407;28;20435;-45
2023/03/21 07:53:09;;;;;;;25.02;19.52;;;9.90;95.40;;;;;;5033415;28;20025;-44
2023/03/21 07:55:39;;;;;;;25.98;18.42;;;9.90;95.40;;;;;;5033206;28;20339;-45
2023/03/21 07:58:09;;;;;;;24.27;17.42;;;9.90;95.40;;;;;;5033146;28;20041;-46
2023/03/21 08:00:37;;;;;;;26.08;19.38;;;9.90;95.30;;;;;;5033155;28;20034;-58
2023/03/21 08:03:03;;;;;;;27.33;20.17;;;9.90;95.30;;;;;;5033419;28;20040;-57
2023/03/21 08:05:34;;;;;;;26.73;19.42;;;9.90;95.30;;;;;;5032724;28;20518;-55
2023/03/21 08:08:04;;;;;;;27.63;21.35;;;9.90;95.30;;;;;;5033086;28;20049;-56
2023/03/21 08:10:31;;;;;;;28.08;19.25;;;9.90;95.20;;;;;;5048903;28;20155;-57
2023/03/21 08:12:59;;;;;;;24.77;19.35;;;9.90;95.20;;;;;;5032202;28;20037;-54
2023/03/21 08:15:29;;;;;;;27.77;20.50;;;9.90;95.20;;;;;;5033089;28;20044;-53
2023/03/21 08:17:54;;;;;;;29.73;21.90;;;9.80;95.10;;;;;;5032615;28;20358;-53
2023/03/21 08:20:23;;;;;;;28.48;21.55;;;9.90;95.10;;;;;;5033012;28;20021;-56
2023/03/21 08:22:50;;;;;;;29.13;22.65;;;9.80;95.10;;;;;;5033107;28;20028;-53
2023/03/21 08:25:20;;;;;;;30.13;22.17;;;9.80;95.10;;;;;;5032036;28;20454;-53
2023/03/21 08:27:49;;;;;;;33.58;23.88;;;9.80;95.00;;;;;;5032252;28;20030;-58
2023/03/21 08:30:21;;;;;;;31.25;22.45;;;9.80;95.10;;;;;;5032777;28;20026;-56
2023/03/21 08:32:50;;;;;;;25.42;21.48;;;9.80;95.10;;;;;;5032025;28;20033;-55
2023/03/21 08:35:17;;;;;;;29.45;21.48;;;9.80;95.10;;;;;;5031606;28;20037;-55
2023/03/21 08:37:44;;;;;;;28.13;21.75;;;9.90;95.10;;;;;;5031819;28;20037;-54
2023/03/21 08:40:14;;;;;;;27.27;22.00;;;9.90;95.10;;;;;;5031834;28;20124;-54
2023/03/21 08:42:41;;;;;;;25.85;20.42;;;9.90;95.10;;;;;;5032988;28;20025;-52
2023/03/21 08:45:10;;;;;;;25.75;20.77;;;9.90;95.10;;;;;;5031844;28;20041;-55
2023/03/21 08:47:39;;;;;;;27.92;21.05;;;9.90;95.10;;;;;;5031581;28;20493;-53
2023/03/21 08:50:13;;;;;;;25.95;20.00;;;9.90;95.10;;;;;;5032542;28;20111;-55
2023/03/21 08:52:41;;;;;;;25.17;19.33;;;9.90;95.10;;;;;;5031421;28;20044;-51
2023/03/21 08:55:09;;;;;;;23.25;19.15;;;9.90;95.10;;;;;;5032400;28;20358;-57
2023/03/21 08:57:39;;;;;;;26.92;20.67;;;10.10;95.10;;;;;;5031619;28;20033;-59
2023/03/21 09:00:11;;;;;;;26.77;20.77;;;10.10;95.00;;;;;;5032197;28;20424;-58
2023/03/21 09:02:41;;;;;;;26.05;19.42;;;10.20;95.00;;;;;;5031556;28;20037;-58
2023/03/21 09:05:10;;;;;;;24.95;19.58;;;10.20;95.00;;;;;;5032691;28;20374;-58
2023/03/21 09:07:38;;;;;;;23.10;18.70;;;10.20;95.00;;;;;;5031842;28;20026;-58
2023/03/21 09:10:06;;;;;;;21.02;16.95;;;10.30;95.00;;;;;;5032750;28;20067;-53
2023/03/21 09:12:33;;;;;;;21.10;18.05;;;10.40;94.90;;;;;;5031620;28;20097;-55
2023/03/21 09:15:06;;;;;;;19.48;17.38;;;10.40;94.80;;;;;;5031710;28;20025;-58
2023/03/21 09:17:43;;;;;;;19.63;17.02;;;10.40;94.80;;;;;;5035153;28;20061;-56
2023/03/21 09:20:17;;;;;;;18.17;15.52;;;10.50;94.60;;;;;;5056095;28;20047;-56
2023/03/21 09:22:46;;;;;;;15.75;14.10;;;10.60;94.70;;;;;;5054049;28;20041;-53
2023/03/21 09:25:15;;;;;;;18.45;15.55;;;10.60;94.50;;;;;;5054874;28;20592;-57
2023/03/21 09:27:44;;;;;;;;;;;10.70;94.50;;;;;;5056821;28;20037;-53
2023/03/21 09:30:17;;;;;;;14.80;13.20;;;10.70;94.50;;;;;;5066096;28;19909;-57
2023/03/21 09:32:49;;;;;;;15.77;12.73;;;10.80;94.40;;;;;;5035972;28;20107;-57
2023/03/21 09:35:17;;;;;;;13.65;11.52;;;10.70;94.20;;;;;;5034864;28;20112;-53
2023/03/21 09:37:58;;;;;;;11.88;10.68;;;10.70;94.00;;;;;;5035240;28;20049;-51
2023/03/21 09:40:48;;;;;;;11.82;10.48;;;10.70;94.00;;;;;;5035699;28;20044;-54
2023/03/21 09:43:41;;;;;;;11.07;9.88;;;10.60;93.90;;;;;;5035573;28;20036;-56
2023/03/21 09:46:53;;;;;;;9.88;8.73;;;10.50;93.90;;;;;;5036083;28;20022;-51
2023/03/21 09:49:52;;;;;;;11.32;9.40;;;10.50;94.00;;;;;;5040389;28;20040;-53
2023/03/21 09:52:44;;;;;;;11.27;10.07;;;10.60;94.10;;;;;;5045231;28;20348;-56
2023/03/21 09:55:35;;;;;;;11.88;10.00;;;10.80;94.20;;;;;;5055051;28;20090;-59
2023/03/21 09:58:24;;;;;;;11.40;9.50;;;10.90;94.20;;;;;;5045003;28;20022;-59
2023/03/21 10:01:34;;;;;;;9.75;8.05;;;10.90;94.00;;;;;;5035143;28;20033;-59
2023/03/21 10:04:05;;;;;;;9.95;7.72;;;10.90;94.00;;;;;;5034236;28;20044;-58
2023/03/21 10:06:39;;;;;;;9.05;7.50;;;10.90;94.00;;;;;;5034044;28;20458;-58
2023/03/21 10:09:31;;;;;;;9.75;7.80;;;10.90;93.90;;;;;;5050837;28;20044;-55
2023/03/21 10:12:29;;;;;;;8.10;6.32;;;10.90;93.70;;;;;;5034699;28;20025;-54
2023/03/21 10:15:05;;;;;;;8.82;6.80;;;10.90;93.80;;;;;;5035679;28;20042;-53
2023/03/21 10:17:45;;;;;;;7.85;6.70;;;11.00;93.70;;;;;;5037349;28;20045;-57
2023/03/21 10:20:31;;;;;;;8.35;5.85;;;10.90;93.40;;;;;;5054053;28;20417;-53
2023/03/21 10:23:06;;;;;;;7.97;6.65;;;11.00;93.30;;;;;;5041985;28;20475;-51
2023/03/21 10:25:39;;;;;;;7.65;6.43;;;10.90;93.20;;;;;;5034535;28;20463;-52
2023/03/21 10:28:12;;;;;;;7.28;6.03;;;10.80;93.10;;;;;;5034547;28;20072;-55
2023/03/21 10:30:48;;;;;;;7.07;5.80;;;10.80;93.10;;;;;;5050341;28;20598;-59
2023/03/21 10:33:26;;;;;;;7.35;6.43;;;10.70;93.00;;;;;;5033883;28;20458;-60
2023/03/21 10:36:10;;;;;;;6.82;5.68;;;10.70;93.20;;;;;;5048479;28;20037;-60
2023/03/21 10:38:45;;;;;;;7.95;5.93;;;10.70;93.30;;;;;;5044525;28;20103;-58
2023/03/21 10:41:15;;;;;;;9.85;7.00;;;10.70;93.40;;;;;;5033699;28;20036;-60
2023/03/21 10:43:41;;;;;;;;;;;10.80;93.50;;;;;;5034421;28;20045;-60
2023/03/21 10:46:20;;;;;;;8.38;6.60;;;10.80;93.50;;;;;;5016959;28;20387;-58
2023/03/21 10:48:51;;;;;;;7.38;6.13;;;10.80;93.60;;;;;;5033451;28;20030;-58
2023/03/21 10:51:22;;;;;;;6.80;5.70;;;10.90;93.60;;;;;;5033517;28;20117;-60
2023/03/21 10:54:06;;;;;;;7.70;5.72;;;10.90;93.60;;;;;;5033176;28;20091;-60
2023/03/21 10:56:37;;;;;;;6.95;5.50;;;10.90;93.60;;;;;;5033219;28;20418;-60
2023/03/21 10:59:07;;;;;;;7.68;6.10;;;10.90;93.50;;;;;;5033542;28;20453;-60
2023/03/21 11:01:48;;;;;;;6.18;5.07;;;11.00;93.60;;;;;;5033233;28;20045;-60
2023/03/21 11:04:16;;;;;;;6.32;5.22;;;10.90;93.40;;;;;;5033314;28;20045;-58
2023/03/21 11:06:45;;;;;;;6.22;5.25;;;10.90;93.40;;;;;;5016914;28;20124;-60
2023/03/21 11:09:20;;;;;;;6.63;5.22;;;10.90;93.30;;;;;;5034399;28;20381;-60
2023/03/21 11:12:08;;;;;;;6.68;5.28;;;10.80;93.30;;;;;;5049595;28;20030;-60
2023/03/21 11:14:44;;;;;;;5.93;5.05;;;10.90;93.40;;;;;;5032870;28;20044;-60
2023/03/21 11:17:31;;;;;;;6.78;5.07;;;10.90;93.40;;;;;;5016839;28;20038;-60
2023/03/21 11:20:07;;;;;;;6.72;5.05;;;10.90;93.40;;;;;;5034169;28;20045;-60
2023/03/21 11:22:43;;;;;;;8.38;5.80;;;11.00;93.50;;;;;;5033290;28;20025;-59
2023/03/21 11:25:22;;;;;;;9.07;6.40;;;11.00;93.50;;;;;;5032808;28;20065;-60
2023/03/21 11:28:14;;;;;;;6.55;5.35;;;10.90;93.40;;;;;;5033029;28;20045;-60
2023/03/21 11:30:55;;;;;;;7.68;5.80;;;10.90;93.20;;;;;;5033133;28;20076;-59
2023/03/21 11:33:26;;;;;;;6.93;5.90;;;10.90;93.40;;;;;;5017017;28;20040;-60
2023/03/21 11:36:05;;;;;;;6.43;5.10;;;10.90;93.20;;;;;;5035905;28;20435;-60
2023/03/21 11:38:38;;;;;;;8.15;5.72;;;10.80;93.20;;;;;;5052315;28;20037;-61
2023/03/21 11:41:08;;;;;;;8.45;6.45;;;10.70;93.20;;;;;;5052695;28;20029;-60
2023/03/21 11:43:41;;;;;;;11.77;6.28;;;10.70;93.00;;;;;;5044199;28;20026;-58
2023/03/21 11:46:30;;;;;;;9.70;6.03;;;10.70;93.30;;;;;;5033600;28;20049;-59
2023/03/21 11:48:59;;;;;;;8.45;6.28;;;10.80;93.40;;;;;;5033489;28;20061;-57
2023/03/21 11:52:12;;;;;;;6.78;5.50;;;10.90;93.40;;;;;;5015759;28;20030;-56
2023/03/21 11:55:34;;;;;;;8.60;6.55;;;11.00;93.50;;;;;;5028754;28;20045;-57
2023/03/21 11:58:18;;;;;;;7.20;5.85;;;11.10;93.30;;;;;;5033608;28;20438;-59
2023/03/21 12:01:31;;;;;;;7.70;5.80;;;11.00;92.70;;;;;;5052593;28;20068;-59
2023/03/21 12:04:31;;;;;;;6.43;5.05;;;11.10;92.50;;;;;;5011463;28;20030;-55
2023/03/21 12:07:25;;;;;;;;;;;11.10;92.60;;;;;;5048892;28;20087;-56
2023/03/21 12:10:28;;;;;;;7.07;5.45;;;11.20;92.60;;;;;;5030346;28;20366;-59
2023/03/21 12:13:19;;;;;;;7.35;5.43;;;11.20;92.50;;;;;;5034458;28;20124;-59
2023/03/21 12:16:10;;;;;;;6.82;5.40;;;11.20;92.30;;;;;;5048717;28;20072;-58
2023/03/21 12:19:04;;;;;;;7.13;5.65;;;11.10;91.90;;;;;;5032901;28;20390;-58
2023/03/21 12:21:55;;;;;;;8.00;6.25;;;11.00;91.80;;;;;;5046535;28;20053;-59
2023/03/21 12:24:47;;;;;;;10.25;6.70;;;10.90;91.80;;;;;;5045447;28;20136;-58
2023/03/21 12:27:57;;;;;;;8.80;6.30;;;10.90;91.60;;;;;;5031978;28;20041;-59
2023/03/21 12:30:44;;;;;;;10.77;7.53;;;10.80;91.60;;;;;;4972135;28;20101;-60
2023/03/21 12:33:17;;;;;;;10.38;7.72;;;10.80;91.60;;;;;;4989156;28;20046;-59
2023/03/21 12:36:09;;;;;;;14.35;9.05;;;10.80;91.50;;;;;;5013428;28;20120;-57
2023/03/21 12:39:05;;;;;;;11.95;8.50;;;10.70;91.60;;;;;;5032964;28;20447;-58
2023/03/21 12:41:38;;;;;;;12.48;8.07;;;10.70;91.80;;;;;;5032872;28;20076;-58
2023/03/21 12:44:25;;;;;;;14.48;10.50;;;10.60;92.00;;;;;;5031884;28;20125;-56
2023/03/21 12:47:08;;;;;;;11.85;7.95;;;10.70;92.20;;;;;;5031933;28;20461;-58
2023/03/21 12:49:56;;;;;;;11.63;8.63;;;10.70;92.20;;;;;;5047146;28;20136;-57
2023/03/21 12:52:30;;;;;;;10.68;8.00;;;10.90;92.20;;;;;;5055326;28;20017;-55
2023/03/21 12:55:24;;;;;;;10.63;8.25;;;10.80;91.80;;;;;;5036607;28;20021;-55
2023/03/21 12:58:13;;;;;;;11.70;7.97;;;10.90;91.70;;;;;;5036792;28;20033;-49
2023/03/21 13:01:00;;;;;;;13.82;9.75;;;10.70;91.60;;;;;;5035473;28;20069;-50
2023/03/21 13:03:49;;;;;;;13.32;8.05;;;10.80;91.80;;;;;;5035484;28;20034;-50
2023/03/21 13:06:20;;;;;;;10.57;8.80;;;10.80;91.80;;;;;;5036482;28;20029;-49
2023/03/21 13:08:57;;;;;;;11.00;8.75;;;10.90;91.90;;;;;;5018695;28;20040;-47
2023/03/21 13:11:28;;;;;;;13.23;8.88;;;10.90;91.90;;;;;;5036611;28;20022;-47
2023/03/21 13:14:15;;;;;;;11.48;8.90;;;10.90;91.90;;;;;;5036165;28;20045;-46
2023/03/21 13:16:56;;;;;;;12.98;9.50;;;10.90;91.70;;;;;;5036231;28;20443;-47